createdAt,value
2022-09-23T00:00:41.645Z,100039.41
2022-09-23T00:04:43.293Z,100044.09
2022-09-23T00:08:46.220Z,100053.44
2022-09-23T00:12:49.420Z,100045.53
2022-09-23T00:16:51.110Z,100044.25
2022-09-23T00:20:52.961Z,100040.81
2022-09-23T00:24:54.686Z,100041.78
2022-09-23T00:28:56.259Z,100041.09
2022-09-23T00:32:57.850Z,100040.97
2022-09-23T00:36:59.418Z,100042.75
2022-09-23T00:41:02.472Z,100035.44
2022-09-23T00:45:04.450Z,100033.41
2022-09-23T00:49:15.620Z,100032.81
2022-09-23T00:53:21.233Z,100024.78
2022-09-23T00:57:24.309Z,100026.38
2022-09-23T01:01:25.863Z,100026.59
2022-09-23T01:05:27.953Z,100021.81
2022-09-23T01:09:29.561Z,100017.63
2022-09-23T01:13:40.206Z,100025.28
2022-09-23T01:17:53.495Z,100013.94
2022-09-23T01:22:09.672Z,100009.50
2022-09-23T01:26:14.236Z,100003.13
2022-09-23T01:30:53.464Z,99989.97
2022-09-23T01:35:19.725Z,99990.25
2022-09-23T01:39:38.646Z,99992.75
2022-09-23T01:43:54.702Z,99983.53
2022-09-23T01:48:04.877Z,99985.81
2022-09-23T01:52:25.455Z,99986.41
2022-09-23T01:56:39.251Z,99985.44
2022-09-23T02:00:50.459Z,99992.25
2022-09-23T02:04:57.020Z,99984.28
2022-09-23T02:09:24.950Z,99988.94
2022-09-23T02:13:34.502Z,99987.84
2022-09-23T02:17:59.506Z,99984.84
2022-09-23T02:22:08.014Z,99984.00
2022-09-23T02:26:33.906Z,99975.66
2022-09-23T02:30:46.783Z,99980.06
2022-09-23T02:35:06.217Z,99974.19
2022-09-23T02:39:13.052Z,99971.78
2022-09-23T02:43:22.344Z,99968.44
2022-09-23T02:47:29.117Z,99967.84
2022-09-23T02:51:34.619Z,99966.16
2022-09-23T02:55:36.445Z,99957.31
2022-09-23T02:59:38.631Z,99954.56
2022-09-23T03:03:49.662Z,99948.00
2022-09-23T03:08:26.017Z,99939.50
2022-09-23T03:13:04.740Z,99942.03
2022-09-23T03:17:20.146Z,99945.38
2022-09-23T03:21:42.525Z,99928.63
2022-09-23T03:25:47.400Z,99941.06
2022-09-23T03:29:51.644Z,99932.59
2022-09-23T03:33:58.056Z,99936.66
2022-09-23T03:38:12.285Z,99933.78
2022-09-23T03:42:51.871Z,99935.81
2022-09-23T03:46:53.406Z,99926.59
2022-09-23T03:50:55.011Z,99921.56
2022-09-23T03:54:56.620Z,99912.47
2022-09-23T03:59:01.380Z,99921.78
2022-09-23T04:03:02.982Z,99917.59
2022-09-23T04:07:04.876Z,99914.50
2022-09-23T04:11:06.600Z,99916.88
2022-09-23T04:15:08.593Z,99911.25
2022-09-23T04:19:11.913Z,99912.81
2022-09-23T04:23:13.581Z,99913.88
2022-09-23T04:27:15.143Z,99911.38
2022-09-23T04:31:16.722Z,99901.69
2022-09-23T04:35:18.372Z,99906.81
2022-09-23T04:39:19.970Z,99916.59
2022-09-23T04:43:23.492Z,99916.47
2022-09-23T04:47:25.069Z,99922.28
2022-09-23T04:51:26.957Z,99922.59
2022-09-23T04:55:29.473Z,99918.72
2022-09-23T04:59:31.056Z,99924.28
2022-09-23T05:03:35.729Z,99917.59
2022-09-23T05:07:37.342Z,99928.69
2022-09-23T05:11:38.916Z,99923.75
2022-09-23T05:15:40.586Z,99925.56
2022-09-23T05:19:42.566Z,99931.59
2022-09-23T05:23:55.374Z,99940.06
2022-09-23T05:27:57.121Z,99933.34
2022-09-23T05:31:58.841Z,99930.13
2022-09-23T05:36:01.234Z,99923.97
2022-09-23T05:40:03.188Z,99932.75
2022-09-23T05:44:05.057Z,99935.63
2022-09-23T05:48:06.700Z,99944.38
2022-09-23T05:52:08.215Z,99940.50
2022-09-23T05:56:09.826Z,99939.09
2022-09-23T06:00:12.203Z,99948.06
2022-09-23T06:04:14.406Z,99945.66
2022-09-23T06:08:16.122Z,99947.63
2022-09-23T06:12:17.714Z,99947.88
2022-09-23T06:16:19.256Z,99941.34
2022-09-23T06:20:20.857Z,99949.13
2022-09-23T06:24:27.262Z,99946.19
2022-09-23T06:28:33.888Z,99940.47
2022-09-23T06:32:35.869Z,99930.09
2022-09-23T06:36:43.342Z,99939.78
2022-09-23T06:40:50.650Z,99929.34
2022-09-23T06:44:52.353Z,99933.16
2022-09-23T06:48:53.931Z,99946.69
2022-09-23T06:52:56.373Z,99935.88
2022-09-23T06:56:58.006Z,99940.28
2022-09-23T07:01:08.073Z,99933.31
2022-09-23T07:05:09.818Z,99933.56
2022-09-23T07:09:11.458Z,99931.69
2022-09-23T07:13:16.267Z,99927.31
2022-09-23T07:17:18.012Z,99931.53
2022-09-23T07:21:19.634Z,99930.78
2022-09-23T07:25:23.195Z,99938.03
2022-09-23T07:29:24.812Z,99936.19
2022-09-23T07:33:33.418Z,99941.06
2022-09-23T07:37:36.347Z,99934.09
2022-09-23T07:41:38.127Z,99945.38
2022-09-23T07:45:43.521Z,99940.16
2022-09-23T07:49:45.196Z,99937.16
2022-09-23T07:53:51.270Z,99944.22
2022-09-23T07:57:52.945Z,99950.19
2022-09-23T08:01:56.756Z,99958.13
2022-09-23T08:06:10.182Z,99949.44
2022-09-23T08:10:13.772Z,99956.22
2022-09-23T08:14:17.893Z,99961.28
2022-09-23T08:18:19.582Z,99966.06
2022-09-23T08:22:21.108Z,99967.16
2022-09-23T08:26:22.888Z,99963.66
2022-09-23T08:30:24.562Z,99963.75
2022-09-23T08:34:27.776Z,99965.94
2022-09-23T08:38:29.851Z,99970.84
2022-09-23T08:42:33.789Z,99974.59
2022-09-23T08:46:41.548Z,99966.69
2022-09-23T08:50:47.424Z,99966.16
2022-09-23T08:54:53.165Z,99967.38
2022-09-23T08:59:21.514Z,99968.84
2022-09-23T09:03:26.286Z,99963.59
2022-09-23T09:07:37.397Z,99960.53
2022-09-23T09:11:48.697Z,99956.94
2022-09-23T09:16:23.913Z,99950.25
2022-09-23T09:20:59.196Z,99945.81
2022-09-23T09:25:14.364Z,99946.38
2022-09-23T09:29:35.431Z,99941.91
2022-09-23T09:33:47.202Z,99938.53
2022-09-23T09:37:48.793Z,99927.69
2022-09-23T09:41:52.052Z,99932.88
2022-09-23T09:46:02.738Z,99929.41
2022-09-23T09:50:09.043Z,99923.28
2022-09-23T09:54:24.854Z,99917.03
2022-09-23T09:58:30.160Z,99903.88
2022-09-23T10:02:35.814Z,99897.91
2022-09-23T10:06:37.498Z,99896.81
2022-09-23T10:10:41.066Z,99889.66
2022-09-23T10:14:43.189Z,99890.06
2022-09-23T10:18:47.862Z,99886.75
2022-09-23T10:22:49.572Z,99887.59
2022-09-23T10:27:07.761Z,99893.66
2022-09-23T10:31:13.388Z,99885.56
2022-09-23T10:35:17.688Z,99888.75
2022-09-23T10:39:37.956Z,99876.59
2022-09-23T10:44:11.509Z,99867.56
2022-09-23T10:48:36.109Z,99869.16
2022-09-23T10:53:02.123Z,99867.06
2022-09-23T10:57:38.176Z,99859.50
2022-09-23T11:01:51.485Z,99851.13
2022-09-23T11:06:14.833Z,99859.91
2022-09-23T11:10:45.357Z,99841.75
2022-09-23T11:15:06.669Z,99837.06
2022-09-23T11:19:33.804Z,99836.13
2022-09-23T11:24:29.428Z,99832.41
2022-09-23T11:28:58.843Z,99837.72
2022-09-23T11:33:08.259Z,99818.91
2022-09-23T11:37:14.494Z,99820.41
2022-09-23T11:41:19.231Z,99820.53
2022-09-23T11:45:32.367Z,99817.94
2022-09-23T11:49:52.515Z,99821.03
2022-09-23T11:54:00.501Z,99812.63
2022-09-23T11:58:23.071Z,99802.84
2022-09-23T12:02:39.938Z,99801.69
2022-09-23T12:06:46.447Z,99798.72
2022-09-23T12:11:19.409Z,99791.41
2022-09-23T12:15:45.655Z,99795.94
2022-09-23T12:19:59.453Z,99784.44
2022-09-23T12:24:18.464Z,99775.81
2022-09-23T12:28:27.145Z,99770.81
2022-09-23T12:32:30.212Z,99767.69
2022-09-23T12:36:36.039Z,99783.00
2022-09-23T12:40:41.815Z,99771.94
2022-09-23T12:44:47.234Z,99767.22
2022-09-23T12:48:58.182Z,99762.75
2022-09-23T12:53:35.046Z,99757.03
2022-09-23T12:57:36.568Z,99764.41
2022-09-23T13:01:39.317Z,99752.56
2022-09-23T13:06:05.612Z,99752.34
2022-09-23T13:10:25.365Z,99744.22
2022-09-23T13:14:28.664Z,99744.25
2022-09-23T13:19:20.205Z,99745.16
2022-09-23T13:23:23.737Z,99738.63
2022-09-23T13:27:32.733Z,99729.03
2022-09-23T13:31:34.566Z,99739.22
2022-09-23T13:35:39.121Z,99733.09
2022-09-23T13:39:40.827Z,99729.56
2022-09-23T13:43:47.904Z,99718.41
2022-09-23T13:47:51.649Z,99717.78
2022-09-23T13:51:54.373Z,99708.56
2022-09-23T13:56:01.682Z,99703.47
2022-09-23T14:00:11.752Z,99698.66
2022-09-23T14:04:24.726Z,99684.94
2022-09-23T14:08:28.091Z,99684.59
2022-09-23T14:12:32.786Z,99676.81
2022-09-23T14:16:39.596Z,99677.44
2022-09-23T14:20:50.222Z,99667.69
2022-09-23T14:24:54.148Z,99671.72
2022-09-23T14:28:56.682Z,99675.34
2022-09-23T14:32:59.238Z,99668.44
2022-09-23T14:37:47.525Z,99670.22
2022-09-23T14:41:49.494Z,99664.47
2022-09-23T14:45:55.133Z,99658.69
2022-09-23T14:50:15.612Z,99661.00
2022-09-23T14:54:34.650Z,99659.50
2022-09-23T14:58:50.958Z,99655.53
2022-09-23T15:03:11.614Z,99651.31
2022-09-23T15:07:19.020Z,99647.72
2022-09-23T15:11:22.205Z,99645.31
2022-09-23T15:15:28.178Z,99655.13
2022-09-23T15:19:31.304Z,99651.31
2022-09-23T15:23:41.737Z,99645.78
2022-09-23T15:27:56.685Z,99641.50
2022-09-23T15:31:58.999Z,99638.22
2022-09-23T15:36:00.874Z,99646.94
2022-09-23T15:40:02.760Z,99639.66
2022-09-23T15:44:15.948Z,99637.56
2022-09-23T15:48:31.625Z,99642.22
2022-09-23T15:52:33.231Z,99647.22
2022-09-23T15:56:34.857Z,99647.03
2022-09-23T16:00:36.627Z,99641.34
2022-09-23T16:04:38.323Z,99645.53
2022-09-23T16:08:42.307Z,99639.94
2022-09-23T16:12:43.965Z,99634.97
2022-09-23T16:16:47.848Z,99629.56
2022-09-23T16:20:50.300Z,99629.06
2022-09-23T16:24:51.826Z,99629.84
2022-09-23T16:28:55.564Z,99630.56
2022-09-23T16:32:57.190Z,99623.91
2022-09-23T16:36:59.093Z,99619.19
2022-09-23T16:41:01.037Z,99617.59
2022-09-23T16:45:02.785Z,99619.56
2022-09-23T16:49:04.838Z,99620.66
2022-09-23T16:53:06.672Z,99612.31
2022-09-23T16:57:09.699Z,99626.47
2022-09-23T17:01:36.523Z,99629.44
2022-09-23T17:05:38.425Z,99624.34
2022-09-23T17:09:39.985Z,99621.75
2022-09-23T17:13:42.327Z,99616.03
2022-09-23T17:17:43.915Z,99608.09
2022-09-23T17:21:45.455Z,99625.47
2022-09-23T17:25:50.124Z,99627.25
2022-09-23T17:29:51.641Z,99612.63
2022-09-23T17:33:53.474Z,99617.22
2022-09-23T17:37:55.802Z,99614.00
2022-09-23T17:41:58.685Z,99620.19
2022-09-23T17:46:15.472Z,99617.19
2022-09-23T17:50:17.557Z,99612.84
2022-09-23T17:54:19.105Z,99606.75
2022-09-23T17:58:24.381Z,99604.63
2022-09-23T18:02:25.981Z,99630.72
2022-09-23T18:06:31.768Z,99624.38
2022-09-23T18:10:33.431Z,99612.47
2022-09-23T18:14:35.008Z,99596.13
2022-09-23T18:18:36.538Z,99610.31
2022-09-23T18:22:38.108Z,99607.53
2022-09-23T18:26:40.007Z,99599.78
2022-09-23T18:30:52.498Z,99593.97
2022-09-23T18:34:54.087Z,99591.25
2022-09-23T18:38:55.740Z,99602.88
2022-09-23T18:42:57.316Z,99609.88
2022-09-23T18:46:59.008Z,99616.53
2022-09-23T18:51:00.623Z,99611.56
2022-09-23T18:55:02.237Z,99611.28
2022-09-23T18:59:07.729Z,99591.31
2022-09-23T19:03:09.300Z,99588.56
2022-09-23T19:07:11.128Z,99588.56
2022-09-23T19:11:14.469Z,99601.88
2022-09-23T19:15:16.088Z,99605.19
2022-09-23T19:19:17.828Z,99597.16
2022-09-23T19:23:20.793Z,99591.91
2022-09-23T19:27:23.282Z,99591.34
2022-09-23T19:31:29.340Z,99590.81
2022-09-23T19:35:33.320Z,99592.19
2022-09-23T19:39:37.448Z,99585.28
2022-09-23T19:43:38.989Z,99584.13
2022-09-23T19:47:40.495Z,99589.16
2022-09-23T19:51:44.123Z,99586.38
2022-09-23T19:55:45.733Z,99572.81
2022-09-23T19:59:47.516Z,99578.63
2022-09-23T20:03:50.006Z,99579.19
2022-09-23T20:07:52.682Z,99576.16
2022-09-23T20:11:54.329Z,99575.59
2022-09-23T20:15:55.985Z,99569.50
2022-09-23T20:19:58.461Z,99573.09
2022-09-23T20:24:00.374Z,99570.06
2022-09-23T20:28:02.182Z,99571.47
2022-09-23T20:32:04.407Z,99575.34
2022-09-23T20:36:06.424Z,99583.66
2022-09-23T20:40:10.366Z,99575.34
2022-09-23T20:44:12.668Z,99570.94
2022-09-23T20:48:14.596Z,99568.72
2022-09-23T20:52:18.004Z,99565.38
2022-09-23T20:56:22.204Z,99555.97
2022-09-23T21:00:24.537Z,99551.84
2022-09-23T21:04:27.193Z,99547.94
2022-09-23T21:08:29.380Z,99542.66
2022-09-23T21:12:31.744Z,99539.38
2022-09-23T21:16:33.460Z,99539.91
2022-09-23T21:20:35.090Z,99539.09
2022-09-23T21:29:00.082Z,99540.47
2022-09-23T21:33:02.116Z,99535.75
2022-09-23T21:37:04.284Z,99538.22
2022-09-23T21:41:08.207Z,99543.22
2022-09-23T21:45:11.171Z,99544.34
2022-09-23T21:49:13.249Z,99549.31
2022-09-23T21:53:17.824Z,99546.84
2022-09-23T21:57:19.370Z,99545.16
2022-09-23T22:01:23.782Z,99542.69
2022-09-23T22:05:25.388Z,99549.06
2022-09-23T22:09:27.210Z,99549.88
2022-09-23T22:13:28.712Z,99551.00
2022-09-23T22:17:33.129Z,99562.34
2022-09-23T22:21:38.137Z,99557.06
2022-09-23T22:25:39.626Z,99561.22
2022-09-23T22:29:59.917Z,99559.84
2022-09-23T22:34:01.529Z,99565.66
2022-09-23T22:38:03.050Z,99553.44
2022-09-23T22:42:05.445Z,99564.25
2022-09-23T22:46:07.180Z,99564.00
2022-09-23T22:50:09.350Z,99563.44
2022-09-23T22:54:11.881Z,99550.44
2022-09-23T22:58:31.341Z,99555.41
2022-09-23T23:02:34.119Z,99545.72
2022-09-23T23:06:36.945Z,99545.44
2022-09-23T23:10:38.653Z,99532.69
2022-09-23T23:14:40.791Z,99531.34
2022-09-23T23:18:43.307Z,99521.91
2022-09-23T23:22:44.815Z,99514.97
2022-09-23T23:26:46.878Z,99508.91
2022-09-23T23:30:48.483Z,99502.25
2022-09-23T23:34:50.011Z,99503.91
2022-09-23T23:38:51.823Z,99505.88
2022-09-23T23:42:53.342Z,99501.72
2022-09-23T23:46:55.308Z,99498.09
2022-09-23T23:50:58.576Z,99496.47
2022-09-23T23:55:00.085Z,99490.38
2022-09-23T23:59:02.722Z,99504.47
